sensor_id;sensor_type;location;lat;lon;timestamp;P1;durP1;ratioP1;P2;durP2;ratioP2
39094;SDS011;24840;47.508;19.376;2024-02-26T00:00:25;12.25;;;9.40;;
39094;SDS011;24840;47.508;19.376;2024-02-26T00:02:51;12.88;;;8.15;;
39094;SDS011;24840;47.508;19.376;2024-02-26T00:05:17;11.55;;;10.15;;
39094;SDS011;24840;47.508;19.376;2024-02-26T00:07:43;16.48;;;11.88;;
39094;SDS011;24840;47.508;19.376;2024-02-26T00:10:10;12.20;;;10.15;;
39094;SDS011;24840;47.508;19.376;2024-02-26T00:12:36;15.48;;;10.93;;
39094;SDS011;24840;47.508;19.376;2024-02-26T00:15:04;12.57;;;10.18;;
39094;SDS011;24840;47.508;19.376;2024-02-26T00:17:30;13.60;;;10.63;;
39094;SDS011;24840;47.508;19.376;2024-02-26T00:19:56;11.68;;;9.20;;
39094;SDS011;24840;47.508;19.376;2024-02-26T00:22:22;12.73;;;9.82;;
39094;SDS011;24840;47.508;19.376;2024-02-26T00:24:48;13.60;;;8.82;;
39094;SDS011;24840;47.508;19.376;2024-02-26T00:27:14;8.80;;;7.90;;
39094;SDS011;24840;47.508;19.376;2024-02-26T00:29:40;11.13;;;9.38;;
39094;SDS011;24840;47.508;19.376;2024-02-26T00:32:06;13.82;;;10.10;;
39094;SDS011;24840;47.508;19.376;2024-02-26T00:34:32;10.88;;;8.73;;
39094;SDS011;24840;47.508;19.376;2024-02-26T00:36:58;11.02;;;8.00;;
39094;SDS011;24840;47.508;19.376;2024-02-26T00:39:24;12.60;;;10.07;;
39094;SDS011;24840;47.508;19.376;2024-02-26T00:41:50;12.23;;;8.98;;
39094;SDS011;24840;47.508;19.376;2024-02-26T00:44:16;10.02;;;8.45;;
39094;SDS011;24840;47.508;19.376;2024-02-26T00:46:42;12.60;;;8.73;;
39094;SDS011;24840;47.508;19.376;2024-02-26T00:49:09;9.93;;;8.38;;
39094;SDS011;24840;47.508;19.376;2024-02-26T00:51:35;17.55;;;9.38;;
39094;SDS011;24840;47.508;19.376;2024-02-26T00:54:01;10.65;;;9.32;;
39094;SDS011;24840;47.508;19.376;2024-02-26T00:56:27;10.80;;;7.93;;
39094;SDS011;24840;47.508;19.376;2024-02-26T00:58:53;11.13;;;9.73;;
39094;SDS011;24840;47.508;19.376;2024-02-26T01:01:19;12.05;;;8.73;;
39094;SDS011;24840;47.508;19.376;2024-02-26T01:03:45;10.93;;;8.35;;
39094;SDS011;24840;47.508;19.376;2024-02-26T01:06:11;18.77;;;9.43;;
39094;SDS011;24840;47.508;19.376;2024-02-26T01:08:37;12.68;;;8.68;;
39094;SDS011;24840;47.508;19.376;2024-02-26T01:11:04;12.30;;;9.32;;
39094;SDS011;24840;47.508;19.376;2024-02-26T01:13:30;10.88;;;7.63;;
39094;SDS011;24840;47.508;19.376;2024-02-26T01:15:56;13.18;;;8.38;;
39094;SDS011;24840;47.508;19.376;2024-02-26T01:18:22;11.73;;;8.93;;
39094;SDS011;24840;47.508;19.376;2024-02-26T01:20:48;11.63;;;8.73;;
39094;SDS011;24840;47.508;19.376;2024-02-26T01:23:14;11.82;;;8.57;;
39094;SDS011;24840;47.508;19.376;2024-02-26T01:25:40;13.93;;;10.10;;
39094;SDS011;24840;47.508;19.376;2024-02-26T01:28:07;12.38;;;10.27;;
39094;SDS011;24840;47.508;19.376;2024-02-26T01:30:33;14.90;;;11.00;;
39094;SDS011;24840;47.508;19.376;2024-02-26T01:32:59;10.93;;;9.13;;
39094;SDS011;24840;47.508;19.376;2024-02-26T01:35:25;10.57;;;8.57;;
39094;SDS011;24840;47.508;19.376;2024-02-26T01:37:51;11.02;;;8.63;;
39094;SDS011;24840;47.508;19.376;2024-02-26T01:40:17;10.20;;;7.63;;
39094;SDS011;24840;47.508;19.376;2024-02-26T01:42:45;12.32;;;7.97;;
39094;SDS011;24840;47.508;19.376;2024-02-26T01:45:14;11.93;;;8.23;;
39094;SDS011;24840;47.508;19.376;2024-02-26T01:47:45;11.68;;;9.00;;
39094;SDS011;24840;47.508;19.376;2024-02-26T01:50:12;10.57;;;8.05;;
39094;SDS011;24840;47.508;19.376;2024-02-26T01:52:38;10.75;;;7.55;;
39094;SDS011;24840;47.508;19.376;2024-02-26T01:55:04;10.50;;;8.27;;
39094;SDS011;24840;47.508;19.376;2024-02-26T01:57:30;8.98;;;7.15;;
39094;SDS011;24840;47.508;19.376;2024-02-26T01:59:56;10.25;;;7.53;;
39094;SDS011;24840;47.508;19.376;2024-02-26T02:02:22;10.68;;;8.88;;
39094;SDS011;24840;47.508;19.376;2024-02-26T02:04:49;12.55;;;8.73;;
39094;SDS011;24840;47.508;19.376;2024-02-26T02:07:15;8.32;;;6.55;;
39094;SDS011;24840;47.508;19.376;2024-02-26T02:09:41;10.45;;;7.50;;
39094;SDS011;24840;47.508;19.376;2024-02-26T02:12:08;15.38;;;8.35;;
39094;SDS011;24840;47.508;19.376;2024-02-26T02:14:34;10.88;;;7.75;;
39094;SDS011;24840;47.508;19.376;2024-02-26T02:17:01;10.27;;;8.73;;
39094;SDS011;24840;47.508;19.376;2024-02-26T02:19:27;12.35;;;8.68;;
39094;SDS011;24840;47.508;19.376;2024-02-26T02:21:53;13.43;;;9.98;;
39094;SDS011;24840;47.508;19.376;2024-02-26T02:24:19;11.18;;;7.95;;
39094;SDS011;24840;47.508;19.376;2024-02-26T02:26:46;13.20;;;9.73;;
39094;SDS011;24840;47.508;19.376;2024-02-26T02:29:12;11.25;;;7.82;;
39094;SDS011;24840;47.508;19.376;2024-02-26T02:31:38;12.75;;;8.75;;
39094;SDS011;24840;47.508;19.376;2024-02-26T02:34:04;14.73;;;9.82;;
39094;SDS011;24840;47.508;19.376;2024-02-26T02:36:31;11.05;;;8.80;;
39094;SDS011;24840;47.508;19.376;2024-02-26T02:38:57;10.73;;;8.18;;
39094;SDS011;24840;47.508;19.376;2024-02-26T02:41:23;11.43;;;7.57;;
39094;SDS011;24840;47.508;19.376;2024-02-26T02:43:49;10.10;;;7.72;;
39094;SDS011;24840;47.508;19.376;2024-02-26T02:46:15;14.23;;;8.93;;
39094;SDS011;24840;47.508;19.376;2024-02-26T02:48:41;10.65;;;8.23;;
39094;SDS011;24840;47.508;19.376;2024-02-26T02:51:08;14.90;;;10.38;;
39094;SDS011;24840;47.508;19.376;2024-02-26T02:53:35;13.05;;;10.18;;
39094;SDS011;24840;47.508;19.376;2024-02-26T02:56:01;14.02;;;10.50;;
39094;SDS011;24840;47.508;19.376;2024-02-26T02:58:27;11.10;;;9.00;;
39094;SDS011;24840;47.508;19.376;2024-02-26T03:00:53;11.15;;;9.18;;
39094;SDS011;24840;47.508;19.376;2024-02-26T03:03:20;14.23;;;9.20;;
39094;SDS011;24840;47.508;19.376;2024-02-26T03:05:49;13.57;;;9.05;;
39094;SDS011;24840;47.508;19.376;2024-02-26T03:08:15;12.68;;;9.18;;
39094;SDS011;24840;47.508;19.376;2024-02-26T03:10:41;13.20;;;9.65;;
39094;SDS011;24840;47.508;19.376;2024-02-26T03:13:08;13.10;;;9.00;;
39094;SDS011;24840;47.508;19.376;2024-02-26T03:15:34;13.05;;;9.35;;
39094;SDS011;24840;47.508;19.376;2024-02-26T03:18:00;13.60;;;11.40;;
39094;SDS011;24840;47.508;19.376;2024-02-26T03:20:26;12.63;;;9.65;;
39094;SDS011;24840;47.508;19.376;2024-02-26T03:22:52;13.20;;;10.05;;
39094;SDS011;24840;47.508;19.376;2024-02-26T03:25:18;12.50;;;9.15;;
39094;SDS011;24840;47.508;19.376;2024-02-26T03:27:44;13.90;;;10.73;;
39094;SDS011;24840;47.508;19.376;2024-02-26T03:30:10;12.55;;;10.35;;
39094;SDS011;24840;47.508;19.376;2024-02-26T03:32:36;11.75;;;10.38;;
39094;SDS011;24840;47.508;19.376;2024-02-26T03:35:02;11.70;;;9.02;;
39094;SDS011;24840;47.508;19.376;2024-02-26T03:37:29;14.88;;;10.38;;
39094;SDS011;24840;47.508;19.376;2024-02-26T03:39:55;14.20;;;9.95;;
39094;SDS011;24840;47.508;19.376;2024-02-26T03:42:22;12.27;;;10.18;;
39094;SDS011;24840;47.508;19.376;2024-02-26T03:44:48;12.88;;;9.52;;
39094;SDS011;24840;47.508;19.376;2024-02-26T03:47:15;16.10;;;10.73;;
39094;SDS011;24840;47.508;19.376;2024-02-26T03:49:42;11.43;;;9.13;;
39094;SDS011;24840;47.508;19.376;2024-02-26T03:52:08;14.20;;;10.38;;
39094;SDS011;24840;47.508;19.376;2024-02-26T03:54:34;13.85;;;10.68;;
39094;SDS011;24840;47.508;19.376;2024-02-26T03:57:00;16.90;;;11.70;;
39094;SDS011;24840;47.508;19.376;2024-02-26T03:59:26;12.23;;;10.25;;
39094;SDS011;24840;47.508;19.376;2024-02-26T04:01:52;13.57;;;10.68;;
39094;SDS011;24840;47.508;19.376;2024-02-26T04:04:18;13.85;;;10.88;;
39094;SDS011;24840;47.508;19.376;2024-02-26T04:06:44;15.35;;;10.60;;
39094;SDS011;24840;47.508;19.376;2024-02-26T04:09:11;15.65;;;11.80;;
39094;SDS011;24840;47.508;19.376;2024-02-26T04:11:37;14.95;;;11.05;;
39094;SDS011;24840;47.508;19.376;2024-02-26T04:14:03;16.60;;;12.27;;
39094;SDS011;24840;47.508;19.376;2024-02-26T04:16:30;14.45;;;10.98;;
39094;SDS011;24840;47.508;19.376;2024-02-26T04:18:56;13.05;;;10.68;;
39094;SDS011;24840;47.508;19.376;2024-02-26T04:21:22;15.55;;;11.73;;
39094;SDS011;24840;47.508;19.376;2024-02-26T04:23:48;15.90;;;12.07;;
39094;SDS011;24840;47.508;19.376;2024-02-26T04:26:15;17.83;;;11.88;;
39094;SDS011;24840;47.508;19.376;2024-02-26T04:28:42;17.45;;;12.35;;
39094;SDS011;24840;47.508;19.376;2024-02-26T04:31:08;24.33;;;14.80;;
39094;SDS011;24840;47.508;19.376;2024-02-26T04:33:34;18.05;;;12.45;;
39094;SDS011;24840;47.508;19.376;2024-02-26T04:36:00;18.08;;;13.48;;
39094;SDS011;24840;47.508;19.376;2024-02-26T04:38:26;19.65;;;13.15;;
39094;SDS011;24840;47.508;19.376;2024-02-26T04:40:52;18.50;;;13.68;;
39094;SDS011;24840;47.508;19.376;2024-02-26T04:43:18;18.65;;;13.65;;
39094;SDS011;24840;47.508;19.376;2024-02-26T04:45:44;21.52;;;15.55;;
39094;SDS011;24840;47.508;19.376;2024-02-26T04:48:10;21.25;;;13.77;;
39094;SDS011;24840;47.508;19.376;2024-02-26T04:50:37;21.88;;;15.73;;
39094;SDS011;24840;47.508;19.376;2024-02-26T04:53:03;24.15;;;14.60;;
39094;SDS011;24840;47.508;19.376;2024-02-26T04:55:29;28.17;;;17.95;;
39094;SDS011;24840;47.508;19.376;2024-02-26T04:57:55;20.80;;;14.95;;
39094;SDS011;24840;47.508;19.376;2024-02-26T05:00:21;23.23;;;15.57;;
39094;SDS011;24840;47.508;19.376;2024-02-26T05:02:47;22.27;;;16.20;;
39094;SDS011;24840;47.508;19.376;2024-02-26T05:05:14;24.30;;;16.23;;
39094;SDS011;24840;47.508;19.376;2024-02-26T05:07:40;24.60;;;16.90;;
39094;SDS011;24840;47.508;19.376;2024-02-26T05:10:10;27.35;;;16.75;;
39094;SDS011;24840;47.508;19.376;2024-02-26T05:12:36;24.58;;;16.80;;
39094;SDS011;24840;47.508;19.376;2024-02-26T05:15:02;23.88;;;17.67;;
39094;SDS011;24840;47.508;19.376;2024-02-26T05:17:29;24.15;;;18.52;;
39094;SDS011;24840;47.508;19.376;2024-02-26T05:19:55;22.48;;;15.38;;
39094;SDS011;24840;47.508;19.376;2024-02-26T05:22:21;21.88;;;15.88;;
39094;SDS011;24840;47.508;19.376;2024-02-26T05:24:47;29.52;;;20.08;;
39094;SDS011;24840;47.508;19.376;2024-02-26T05:27:13;28.17;;;19.45;;
39094;SDS011;24840;47.508;19.376;2024-02-26T05:29:39;24.02;;;15.93;;
39094;SDS011;24840;47.508;19.376;2024-02-26T05:32:05;27.80;;;17.90;;
39094;SDS011;24840;47.508;19.376;2024-02-26T05:34:31;21.42;;;15.95;;
39094;SDS011;24840;47.508;19.376;2024-02-26T05:36:58;23.42;;;16.95;;
39094;SDS011;24840;47.508;19.376;2024-02-26T05:39:24;25.25;;;17.38;;
39094;SDS011;24840;47.508;19.376;2024-02-26T05:41:50;21.92;;;16.15;;
39094;SDS011;24840;47.508;19.376;2024-02-26T05:44:16;29.23;;;17.98;;
39094;SDS011;24840;47.508;19.376;2024-02-26T05:46:42;22.50;;;17.25;;
39094;SDS011;24840;47.508;19.376;2024-02-26T05:49:09;25.83;;;16.92;;
39094;SDS011;24840;47.508;19.376;2024-02-26T05:51:35;22.50;;;17.92;;
39094;SDS011;24840;47.508;19.376;2024-02-26T05:54:01;28.02;;;18.48;;
39094;SDS011;24840;47.508;19.376;2024-02-26T05:56:27;24.35;;;17.38;;
39094;SDS011;24840;47.508;19.376;2024-02-26T05:58:53;27.83;;;19.95;;
39094;SDS011;24840;47.508;19.376;2024-02-26T06:01:19;24.20;;;19.55;;
39094;SDS011;24840;47.508;19.376;2024-02-26T06:03:46;25.08;;;18.08;;
39094;SDS011;24840;47.508;19.376;2024-02-26T06:06:13;21.75;;;17.23;;
39094;SDS011;24840;47.508;19.376;2024-02-26T06:08:40;23.77;;;20.13;;
39094;SDS011;24840;47.508;19.376;2024-02-26T06:11:06;28.23;;;21.02;;
39094;SDS011;24840;47.508;19.376;2024-02-26T06:13:33;25.23;;;19.92;;
39094;SDS011;24840;47.508;19.376;2024-02-26T06:15:59;30.27;;;22.55;;
39094;SDS011;24840;47.508;19.376;2024-02-26T06:18:25;29.92;;;22.75;;
39094;SDS011;24840;47.508;19.376;2024-02-26T06:20:51;28.95;;;22.98;;
39094;SDS011;24840;47.508;19.376;2024-02-26T06:23:17;25.50;;;21.15;;
39094;SDS011;24840;47.508;19.376;2024-02-26T06:25:43;33.83;;;23.90;;
39094;SDS011;24840;47.508;19.376;2024-02-26T06:28:09;27.27;;;21.67;;
39094;SDS011;24840;47.508;19.376;2024-02-26T06:30:35;28.92;;;21.92;;
39094;SDS011;24840;47.508;19.376;2024-02-26T06:33:01;27.05;;;21.67;;
39094;SDS011;24840;47.508;19.376;2024-02-26T06:35:28;29.13;;;21.25;;
39094;SDS011;24840;47.508;19.376;2024-02-26T06:37:54;30.90;;;22.98;;
39094;SDS011;24840;47.508;19.376;2024-02-26T06:40:20;28.55;;;21.92;;
39094;SDS011;24840;47.508;19.376;2024-02-26T06:42:46;31.25;;;24.00;;
39094;SDS011;24840;47.508;19.376;2024-02-26T06:45:12;26.95;;;23.48;;
39094;SDS011;24840;47.508;19.376;2024-02-26T06:47:38;30.17;;;23.10;;
39094;SDS011;24840;47.508;19.376;2024-02-26T06:50:04;31.45;;;24.45;;
39094;SDS011;24840;47.508;19.376;2024-02-26T06:52:30;32.53;;;24.75;;
39094;SDS011;24840;47.508;19.376;2024-02-26T06:54:56;35.28;;;24.08;;
39094;SDS011;24840;47.508;19.376;2024-02-26T06:57:22;32.33;;;24.50;;
39094;SDS011;24840;47.508;19.376;2024-02-26T06:59:49;32.33;;;24.92;;
39094;SDS011;24840;47.508;19.376;2024-02-26T07:02:15;30.70;;;24.73;;
39094;SDS011;24840;47.508;19.376;2024-02-26T07:04:41;38.67;;;25.77;;
39094;SDS011;24840;47.508;19.376;2024-02-26T07:07:08;37.47;;;26.55;;
39094;SDS011;24840;47.508;19.376;2024-02-26T07:09:34;33.15;;;26.42;;
39094;SDS011;24840;47.508;19.376;2024-02-26T07:12:00;36.47;;;27.67;;
39094;SDS011;24840;47.508;19.376;2024-02-26T07:14:26;41.28;;;28.48;;
39094;SDS011;24840;47.508;19.376;2024-02-26T07:16:52;38.00;;;27.48;;
39094;SDS011;24840;47.508;19.376;2024-02-26T07:19:18;37.67;;;28.85;;
39094;SDS011;24840;47.508;19.376;2024-02-26T07:21:44;35.20;;;27.20;;
39094;SDS011;24840;47.508;19.376;2024-02-26T07:24:10;39.78;;;29.83;;
39094;SDS011;24840;47.508;19.376;2024-02-26T07:26:36;37.60;;;28.30;;
39094;SDS011;24840;47.508;19.376;2024-02-26T07:29:02;40.38;;;28.52;;
39094;SDS011;24840;47.508;19.376;2024-02-26T07:31:29;34.72;;;28.48;;
39094;SDS011;24840;47.508;19.376;2024-02-26T07:33:55;40.40;;;29.10;;
39094;SDS011;24840;47.508;19.376;2024-02-26T07:36:21;36.20;;;28.52;;
39094;SDS011;24840;47.508;19.376;2024-02-26T07:38:47;37.83;;;29.50;;
39094;SDS011;24840;47.508;19.376;2024-02-26T07:41:13;38.17;;;29.15;;
39094;SDS011;24840;47.508;19.376;2024-02-26T07:43:39;43.70;;;29.48;;
39094;SDS011;24840;47.508;19.376;2024-02-26T07:46:06;36.30;;;28.55;;
39094;SDS011;24840;47.508;19.376;2024-02-26T07:48:32;34.47;;;27.75;;
39094;SDS011;24840;47.508;19.376;2024-02-26T07:50:58;35.88;;;28.02;;
39094;SDS011;24840;47.508;19.376;2024-02-26T07:53:25;36.80;;;28.48;;
39094;SDS011;24840;47.508;19.376;2024-02-26T07:55:51;35.72;;;28.58;;
39094;SDS011;24840;47.508;19.376;2024-02-26T07:58:17;36.72;;;28.48;;
39094;SDS011;24840;47.508;19.376;2024-02-26T08:00:43;40.40;;;31.25;;
39094;SDS011;24840;47.508;19.376;2024-02-26T08:03:11;39.05;;;30.85;;
39094;SDS011;24840;47.508;19.376;2024-02-26T08:05:38;36.22;;;28.35;;
39094;SDS011;24840;47.508;19.376;2024-02-26T08:08:06;38.53;;;29.73;;
39094;SDS011;24840;47.508;19.376;2024-02-26T08:10:32;39.85;;;32.22;;
39094;SDS011;24840;47.508;19.376;2024-02-26T08:12:58;41.53;;;32.03;;
39094;SDS011;24840;47.508;19.376;2024-02-26T08:15:30;40.42;;;31.65;;
39094;SDS011;24840;47.508;19.376;2024-02-26T08:17:57;38.55;;;30.60;;
39094;SDS011;24840;47.508;19.376;2024-02-26T08:20:23;37.55;;;31.10;;
39094;SDS011;24840;47.508;19.376;2024-02-26T08:22:49;41.80;;;32.55;;
39094;SDS011;24840;47.508;19.376;2024-02-26T08:25:15;42.47;;;34.13;;
39094;SDS011;24840;47.508;19.376;2024-02-26T08:27:41;37.95;;;29.67;;
39094;SDS011;24840;47.508;19.376;2024-02-26T08:30:09;38.40;;;32.38;;
39094;SDS011;24840;47.508;19.376;2024-02-26T08:32:35;35.92;;;31.05;;
39094;SDS011;24840;47.508;19.376;2024-02-26T08:35:01;44.97;;;32.03;;
39094;SDS011;24840;47.508;19.376;2024-02-26T08:37:27;42.15;;;34.10;;
39094;SDS011;24840;47.508;19.376;2024-02-26T08:39:53;44.25;;;33.60;;
39094;SDS011;24840;47.508;19.376;2024-02-26T08:42:19;38.55;;;32.20;;
39094;SDS011;24840;47.508;19.376;2024-02-26T08:44:46;37.17;;;32.25;;
39094;SDS011;24840;47.508;19.376;2024-02-26T08:47:12;43.78;;;34.03;;
39094;SDS011;24840;47.508;19.376;2024-02-26T08:49:42;41.50;;;35.30;;
39094;SDS011;24840;47.508;19.376;2024-02-26T08:52:08;42.20;;;33.58;;
39094;SDS011;24840;47.508;19.376;2024-02-26T08:54:33;43.15;;;35.67;;
39094;SDS011;24840;47.508;19.376;2024-02-26T08:56:59;43.38;;;36.78;;
39094;SDS011;24840;47.508;19.376;2024-02-26T08:59:25;41.60;;;35.88;;
39094;SDS011;24840;47.508;19.376;2024-02-26T09:01:51;41.80;;;36.50;;
39094;SDS011;24840;47.508;19.376;2024-02-26T09:04:17;41.85;;;36.80;;
39094;SDS011;24840;47.508;19.376;2024-02-26T09:06:43;45.35;;;39.25;;
39094;SDS011;24840;47.508;19.376;2024-02-26T09:09:09;43.75;;;37.15;;
39094;SDS011;24840;47.508;19.376;2024-02-26T09:11:37;40.85;;;36.42;;
39094;SDS011;24840;47.508;19.376;2024-02-26T09:14:03;42.80;;;36.90;;
39094;SDS011;24840;47.508;19.376;2024-02-26T09:16:29;43.60;;;35.88;;
39094;SDS011;24840;47.508;19.376;2024-02-26T09:18:56;43.30;;;36.47;;
39094;SDS011;24840;47.508;19.376;2024-02-26T09:21:22;40.75;;;36.00;;
39094;SDS011;24840;47.508;19.376;2024-02-26T09:23:50;38.25;;;34.10;;
39094;SDS011;24840;47.508;19.376;2024-02-26T09:26:16;38.92;;;34.15;;
39094;SDS011;24840;47.508;19.376;2024-02-26T09:28:42;38.47;;;33.22;;
39094;SDS011;24840;47.508;19.376;2024-02-26T09:31:09;38.67;;;32.45;;
39094;SDS011;24840;47.508;19.376;2024-02-26T09:33:35;40.10;;;33.63;;
39094;SDS011;24840;47.508;19.376;2024-02-26T09:36:01;39.85;;;34.13;;
39094;SDS011;24840;47.508;19.376;2024-02-26T09:38:27;35.40;;;29.48;;
39094;SDS011;24840;47.508;19.376;2024-02-26T09:40:54;33.05;;;26.30;;
39094;SDS011;24840;47.508;19.376;2024-02-26T09:43:21;34.22;;;27.63;;
39094;SDS011;24840;47.508;19.376;2024-02-26T09:45:49;31.75;;;24.70;;
39094;SDS011;24840;47.508;19.376;2024-02-26T09:48:16;28.33;;;24.23;;
39094;SDS011;24840;47.508;19.376;2024-02-26T09:50:43;29.17;;;26.00;;
39094;SDS011;24840;47.508;19.376;2024-02-26T09:53:12;34.30;;;28.75;;
39094;SDS011;24840;47.508;19.376;2024-02-26T09:55:40;33.72;;;26.70;;
39094;SDS011;24840;47.508;19.376;2024-02-26T09:58:06;34.83;;;24.92;;
39094;SDS011;24840;47.508;19.376;2024-02-26T10:00:32;26.90;;;24.02;;
39094;SDS011;24840;47.508;19.376;2024-02-26T10:03:03;29.90;;;24.73;;
39094;SDS011;24840;47.508;19.376;2024-02-26T10:05:30;29.17;;;24.63;;
39094;SDS011;24840;47.508;19.376;2024-02-26T10:07:57;26.67;;;23.60;;
39094;SDS011;24840;47.508;19.376;2024-02-26T10:10:26;29.08;;;22.92;;
39094;SDS011;24840;47.508;19.376;2024-02-26T10:12:52;25.95;;;21.08;;
39094;SDS011;24840;47.508;19.376;2024-02-26T10:15:18;28.02;;;23.23;;
39094;SDS011;24840;47.508;19.376;2024-02-26T10:17:44;31.73;;;21.77;;
39094;SDS011;24840;47.508;19.376;2024-02-26T10:20:14;26.63;;;22.10;;
39094;SDS011;24840;47.508;19.376;2024-02-26T10:22:41;24.38;;;21.05;;
39094;SDS011;24840;47.508;19.376;2024-02-26T10:25:07;25.65;;;21.08;;
39094;SDS011;24840;47.508;19.376;2024-02-26T10:27:34;25.90;;;20.67;;
39094;SDS011;24840;47.508;19.376;2024-02-26T10:30:19;22.45;;;20.05;;
39094;SDS011;24840;47.508;19.376;2024-02-26T10:32:46;23.65;;;20.13;;
39094;SDS011;24840;47.508;19.376;2024-02-26T10:35:13;23.73;;;21.00;;
39094;SDS011;24840;47.508;19.376;2024-02-26T10:37:42;25.92;;;21.50;;
39094;SDS011;24840;47.508;19.376;2024-02-26T10:40:11;24.15;;;20.80;;
39094;SDS011;24840;47.508;19.376;2024-02-26T10:42:38;27.50;;;20.13;;
39094;SDS011;24840;47.508;19.376;2024-02-26T10:45:04;25.73;;;21.00;;
39094;SDS011;24840;47.508;19.376;2024-02-26T10:47:31;26.27;;;22.77;;
39094;SDS011;24840;47.508;19.376;2024-02-26T10:49:58;24.85;;;20.65;;
39094;SDS011;24840;47.508;19.376;2024-02-26T10:52:25;25.35;;;22.45;;
39094;SDS011;24840;47.508;19.376;2024-02-26T10:54:53;41.88;;;24.48;;
39094;SDS011;24840;47.508;19.376;2024-02-26T10:57:19;46.42;;;25.35;;
39094;SDS011;24840;47.508;19.376;2024-02-26T10:59:46;37.85;;;25.52;;
39094;SDS011;24840;47.508;19.376;2024-02-26T11:02:12;35.50;;;25.42;;
39094;SDS011;24840;47.508;19.376;2024-02-26T11:04:39;27.23;;;23.50;;
39094;SDS011;24840;47.508;19.376;2024-02-26T11:07:05;29.63;;;23.65;;
39094;SDS011;24840;47.508;19.376;2024-02-26T11:09:32;31.92;;;24.75;;
39094;SDS011;24840;47.508;19.376;2024-02-26T11:11:58;32.17;;;24.58;;
39094;SDS011;24840;47.508;19.376;2024-02-26T11:14:24;29.17;;;24.70;;
39094;SDS011;24840;47.508;19.376;2024-02-26T11:16:51;30.20;;;26.98;;
39094;SDS011;24840;47.508;19.376;2024-02-26T11:19:17;27.45;;;24.40;;
39094;SDS011;24840;47.508;19.376;2024-02-26T11:21:44;26.58;;;22.88;;
39094;SDS011;24840;47.508;19.376;2024-02-26T11:24:13;26.95;;;22.95;;
39094;SDS011;24840;47.508;19.376;2024-02-26T11:26:43;24.98;;;21.92;;
39094;SDS011;24840;47.508;19.376;2024-02-26T11:29:13;26.67;;;21.85;;
39094;SDS011;24840;47.508;19.376;2024-02-26T11:31:39;25.85;;;23.10;;
39094;SDS011;24840;47.508;19.376;2024-02-26T11:34:06;26.58;;;20.95;;
39094;SDS011;24840;47.508;19.376;2024-02-26T11:36:33;27.15;;;24.17;;
39094;SDS011;24840;47.508;19.376;2024-02-26T11:38:59;26.45;;;22.85;;
39094;SDS011;24840;47.508;19.376;2024-02-26T11:41:25;24.15;;;21.55;;
39094;SDS011;24840;47.508;19.376;2024-02-26T11:46:25;25.40;;;20.77;;
39094;SDS011;24840;47.508;19.376;2024-02-26T11:48:51;22.23;;;19.33;;
39094;SDS011;24840;47.508;19.376;2024-02-26T11:51:24;23.45;;;18.10;;
39094;SDS011;24840;47.508;19.376;2024-02-26T11:53:50;19.03;;;16.90;;
39094;SDS011;24840;47.508;19.376;2024-02-26T11:58:43;20.67;;;18.48;;
39094;SDS011;24840;47.508;19.376;2024-02-26T12:03:54;21.13;;;18.10;;
39094;SDS011;24840;47.508;19.376;2024-02-26T12:06:20;21.45;;;19.25;;
39094;SDS011;24840;47.508;19.376;2024-02-26T12:08:46;22.58;;;19.95;;
39094;SDS011;24840;47.508;19.376;2024-02-26T12:11:15;23.30;;;20.73;;
39094;SDS011;24840;47.508;19.376;2024-02-26T12:13:41;22.30;;;20.00;;
39094;SDS011;24840;47.508;19.376;2024-02-26T12:16:08;22.48;;;20.08;;
39094;SDS011;24840;47.508;19.376;2024-02-26T12:18:34;30.42;;;19.80;;
39094;SDS011;24840;47.508;19.376;2024-02-26T12:21:00;24.17;;;20.58;;
39094;SDS011;24840;47.508;19.376;2024-02-26T12:23:27;23.55;;;19.63;;
39094;SDS011;24840;47.508;19.376;2024-02-26T12:25:53;22.27;;;19.88;;
39094;SDS011;24840;47.508;19.376;2024-02-26T12:28:20;22.48;;;19.60;;
39094;SDS011;24840;47.508;19.376;2024-02-26T12:30:46;22.55;;;19.70;;
39094;SDS011;24840;47.508;19.376;2024-02-26T12:33:12;22.40;;;19.45;;
39094;SDS011;24840;47.508;19.376;2024-02-26T12:35:38;23.05;;;20.52;;
39094;SDS011;24840;47.508;19.376;2024-02-26T12:38:04;27.70;;;21.80;;
39094;SDS011;24840;47.508;19.376;2024-02-26T12:40:31;22.88;;;20.60;;
39094;SDS011;24840;47.508;19.376;2024-02-26T12:42:57;23.92;;;21.45;;
39094;SDS011;24840;47.508;19.376;2024-02-26T12:45:24;24.05;;;21.27;;
39094;SDS011;24840;47.508;19.376;2024-02-26T12:47:51;23.90;;;21.50;;
39094;SDS011;24840;47.508;19.376;2024-02-26T12:50:17;27.70;;;21.85;;
39094;SDS011;24840;47.508;19.376;2024-02-26T12:52:44;26.08;;;20.52;;
39094;SDS011;24840;47.508;19.376;2024-02-26T12:55:17;23.17;;;20.67;;
39094;SDS011;24840;47.508;19.376;2024-02-26T12:57:44;25.17;;;19.48;;
39094;SDS011;24840;47.508;19.376;2024-02-26T13:00:12;21.25;;;19.13;;
39094;SDS011;24840;47.508;19.376;2024-02-26T13:02:39;21.35;;;19.15;;
39094;SDS011;24840;47.508;19.376;2024-02-26T13:05:07;21.23;;;19.13;;
39094;SDS011;24840;47.508;19.376;2024-02-26T13:07:34;22.75;;;19.48;;
39094;SDS011;24840;47.508;19.376;2024-02-26T13:10:00;20.45;;;18.15;;
39094;SDS011;24840;47.508;19.376;2024-02-26T13:12:26;20.58;;;18.48;;
39094;SDS011;24840;47.508;19.376;2024-02-26T13:14:59;22.17;;;17.75;;
39094;SDS011;24840;47.508;19.376;2024-02-26T13:17:25;16.55;;;14.75;;
39094;SDS011;24840;47.508;19.376;2024-02-26T13:19:53;19.02;;;17.02;;
39094;SDS011;24840;47.508;19.376;2024-02-26T13:22:20;21.05;;;18.85;;
39094;SDS011;24840;47.508;19.376;2024-02-26T13:24:54;22.23;;;17.33;;
39094;SDS011;24840;47.508;19.376;2024-02-26T13:27:21;19.80;;;17.80;;
39094;SDS011;24840;47.508;19.376;2024-02-26T13:29:47;22.13;;;18.92;;
39094;SDS011;24840;47.508;19.376;2024-02-26T13:32:13;21.92;;;18.25;;
39094;SDS011;24840;47.508;19.376;2024-02-26T13:34:39;21.08;;;18.25;;
39094;SDS011;24840;47.508;19.376;2024-02-26T13:37:05;19.38;;;17.40;;
39094;SDS011;24840;47.508;19.376;2024-02-26T13:39:34;22.23;;;16.58;;
39094;SDS011;24840;47.508;19.376;2024-02-26T13:42:00;21.90;;;19.38;;
39094;SDS011;24840;47.508;19.376;2024-02-26T13:44:26;20.52;;;17.65;;
39094;SDS011;24840;47.508;19.376;2024-02-26T13:46:52;20.05;;;17.92;;
39094;SDS011;24840;47.508;19.376;2024-02-26T13:49:18;27.70;;;18.27;;
39094;SDS011;24840;47.508;19.376;2024-02-26T13:51:44;22.40;;;18.15;;
39094;SDS011;24840;47.508;19.376;2024-02-26T13:54:10;21.35;;;19.05;;
39094;SDS011;24840;47.508;19.376;2024-02-26T13:56:36;18.15;;;16.42;;
39094;SDS011;24840;47.508;19.376;2024-02-26T13:59:02;22.63;;;18.98;;
39094;SDS011;24840;47.508;19.376;2024-02-26T14:01:28;20.88;;;18.42;;
39094;SDS011;24840;47.508;19.376;2024-02-26T14:03:55;22.95;;;18.80;;
39094;SDS011;24840;47.508;19.376;2024-02-26T14:06:22;19.40;;;17.60;;
39094;SDS011;24840;47.508;19.376;2024-02-26T14:08:48;20.98;;;18.77;;
39094;SDS011;24840;47.508;19.376;2024-02-26T14:11:14;20.50;;;18.35;;
39094;SDS011;24840;47.508;19.376;2024-02-26T14:13:41;19.60;;;17.48;;